Time;durP1;ratioP1;P1;durP2;ratioP2;P2;SDS_P1;SDS_P2;PMS_P1;PMS_P2;Temp;Humidity;BMP_temperature;BMP_pressure;BME280_temperature;BME280_humidity;BME280_pressure;Samples;Min_cycle;Max_cycle;Signal;HPM_P1;HPM_P2
2023/09/06 00:00:31;;;;;;;13.13;3.05;;;;;;;25.01;43.54;98839.59;5090413;28;20024;-45
2023/09/06 00:02:57;;;;;;;7.80;2.70;;;;;;;24.88;43.62;98838.41;5092731;28;20051;-45
2023/09/06 00:05:24;;;;;;;14.05;3.10;;;;;;;24.83;44.04;98851.91;5094449;28;20431;-45
2023/09/06 00:07:49;;;;;;;6.40;2.60;;;;;;;24.86;43.86;98848.63;5077733;28;20019;-45
2023/09/06 00:10:15;;;;;;;4.95;2.40;;;;;;;24.79;43.94;98848.22;5094533;28;20082;-45
2023/09/06 00:12:42;;;;;;;8.88;2.60;;;;;;;24.72;44.24;98842.41;5095720;28;20022;-45
2023/09/06 00:15:08;;;;;;;6.10;2.35;;;;;;;24.68;44.31;98844.06;5094075;28;20510;-45
2023/09/06 00:17:37;;;;;;;6.82;3.08;;;;;;;24.71;44.32;98851.56;5095577;28;20032;-45
2023/09/06 00:20:20;;;;;;;6.72;2.50;;;;;;;24.76;44.16;98839.94;5095562;28;20035;-45
2023/09/06 00:22:59;;;;;;;4.72;2.55;;;;;;;24.76;44.04;98843.41;5095595;28;20478;-45
2023/09/06 00:25:26;;;;;;;6.85;2.55;;;;;;;24.76;43.70;98859.53;5094097;28;20035;-45
2023/09/06 00:27:53;;;;;;;3.92;2.47;;;;;;;24.72;43.56;98847.78;5094178;28;20032;-45
2023/09/06 00:30:19;;;;;;;6.95;2.80;;;;;;;24.66;44.03;98848.94;5094063;28;20032;-45
2023/09/06 00:32:46;;;;;;;8.80;3.55;;;;;;;24.74;44.14;98852.84;5093961;28;20402;-45
2023/09/06 00:35:13;;;;;;;4.40;2.45;;;;;;;24.71;43.86;98855.03;5095177;28;20027;-45
2023/09/06 00:37:40;;;;;;;4.13;2.35;;;;;;;24.63;43.97;98857.53;5093998;28;20073;-45
2023/09/06 00:40:40;;;;;;;6.28;2.65;;;;;;;24.61;44.28;98851.66;5095192;28;20020;-45
2023/09/06 00:42:59;;;;;;;9.63;2.75;;;;;;;24.56;44.34;98855.22;5091922;28;20415;-45
2023/09/06 00:45:29;;;;;;;10.02;2.88;;;;;;;24.64;44.37;98857.25;5095001;28;20023;-45
2023/09/06 00:47:57;;;;;;;17.60;5.60;;;;;;;24.72;43.93;98858.50;5095097;28;20016;-45
2023/09/06 00:50:23;;;;;;;45.78;10.55;;;;;;;24.77;44.19;98861.13;5093759;28;20032;-45
2023/09/06 00:52:51;;;;;;;16.92;6.38;;;;;;;25.01;43.62;98862.94;5094953;28;20028;-45
2023/09/06 00:55:18;;;;;;;16.48;5.88;;;;;;;25.01;43.38;98862.94;5094888;28;20032;-45
2023/09/06 00:57:45;;;;;;;15.57;5.97;;;;;;;24.95;43.04;98866.78;5094816;28;20021;-45
2023/09/06 01:00:22;;;;;;;5.75;2.60;;;;;;;25.01;43.13;98857.56;5093538;28;20115;-45
2023/09/06 01:02:49;;;;;;;10.02;3.22;;;;;;;24.94;42.86;98855.25;5094796;28;20035;-45
2023/09/06 01:05:16;;;;;;;5.82;2.63;;;;;;;24.92;42.93;98865.47;5094624;28;20028;-46
2023/09/06 01:07:52;;;;;;;6.07;2.92;;;;;;;24.88;43.11;98867.94;5093428;28;20395;-45
2023/09/06 01:10:18;;;;;;;10.57;3.25;;;;;;;24.95;43.27;98867.59;5094696;28;20028;-45
2023/09/06 01:12:44;;;;;;;6.90;3.17;;;;;;;24.99;43.09;98859.72;5094464;28;20031;-45
2023/09/06 01:15:11;;;;;;;7.13;2.90;;;;;;;25.13;42.94;98863.28;5092893;28;20089;-45
2023/09/06 01:17:38;;;;;;;4.57;2.53;;;;;;;25.30;42.36;98862.78;5094777;28;20019;-45
2023/09/06 01:20:17;;;;;;;4.38;2.33;;;;;;;25.25;42.09;98857.50;5094460;28;20028;-45
2023/09/06 01:22:53;;;;;;;6.05;2.53;;;;;;;25.09;42.38;98856.91;5093257;28;20028;-45
2023/09/06 01:25:20;;;;;;;6.65;2.30;;;;;;;25.07;42.22;98864.44;5094304;28;20024;-45
2023/09/06 01:27:47;;;;;;;6.65;2.42;;;;;;;24.87;42.17;98852.94;5092997;28;20027;-45
2023/09/06 01:30:12;;;;;;;7.22;2.58;;;;;;;24.69;42.68;98849.16;5092933;28;20028;-45
2023/09/06 01:32:39;;;;;;;9.95;3.72;;;;;;;24.70;43.38;98852.63;5094465;28;20098;-45
2023/09/06 01:35:08;;;;;;;5.72;2.58;;;;;;;24.95;42.56;98842.63;5094068;28;20546;-45
2023/09/06 01:37:35;;;;;;;7.63;2.70;;;;;;;24.94;42.51;98846.41;5094420;28;20099;-45
2023/09/06 01:40:00;;;;;;;24.27;3.50;;;;;;;24.98;42.49;98845.53;5094379;28;20386;-45
2023/09/06 01:42:26;;;;;;;16.83;3.80;;;;;;;24.99;42.53;98847.13;5094006;28;20024;-45
2023/09/06 01:44:53;;;;;;;12.25;2.72;;;;;;;24.87;42.14;98839.50;5093863;28;20035;-45
2023/09/06 01:47:18;;;;;;;10.40;3.22;;;;;;;24.85;42.64;98846.25;5093922;28;20020;-45
2023/09/06 01:49:44;;;;;;;5.03;2.30;;;;;;;24.83;42.41;98851.91;5094143;28;20028;-45
2023/09/06 01:52:10;;;;;;;7.47;2.70;;;;;;;24.62;42.97;98837.97;5094030;28;20374;-45
2023/09/06 01:54:36;;;;;;;8.32;2.97;;;;;;;24.59;42.91;98849.28;5092517;28;20044;-45
2023/09/06 01:57:02;;;;;;;9.50;2.55;;;;;;;24.55;42.65;98836.72;5093993;28;20490;-45
2023/09/06 01:59:27;;;;;;;4.53;2.55;;;;;;;24.42;43.10;98844.38;5092413;28;20489;-45
2023/09/06 02:01:54;;;;;;;6.28;2.42;;;;;;;24.27;43.18;98845.38;5092379;28;20028;-45
2023/09/06 02:04:20;;;;;;;4.95;2.45;;;;;;;24.13;43.28;98837.19;5093756;28;20035;-45
2023/09/06 02:06:45;;;;;;;4.88;2.20;;;;;;;24.08;43.35;98831.88;5093529;28;20028;-45
2023/09/06 02:09:11;;;;;;;9.45;2.30;;;;;;;24.04;43.11;98830.06;5093535;28;20102;-45
2023/09/06 02:11:37;;;;;;;4.90;2.15;;;;;;;23.91;42.98;98835.03;5093682;28;20034;-45
2023/09/06 02:14:02;;;;;;;9.68;2.80;;;;;;;23.82;42.99;98838.63;5091863;28;20578;-45
2023/09/06 02:16:28;;;;;;;5.40;2.45;;;;;;;23.77;42.92;98819.88;5093421;28;20016;-45
2023/09/06 02:18:53;;;;;;;10.82;2.60;;;;;;;23.72;42.41;98836.78;5091977;28;20052;-45
2023/09/06 02:21:19;;;;;;;7.97;2.92;;;;;;;23.76;42.12;98823.63;5093242;28;20078;-45
2023/09/06 02:23:45;;;;;;;8.20;2.58;;;;;;;23.73;41.92;98836.53;5093470;28;20048;-45
2023/09/06 02:26:10;;;;;;;2.97;2.10;;;;;;;23.67;41.93;98839.53;5092366;28;20024;-45
2023/09/06 02:28:36;;;;;;;4.93;2.72;;;;;;;23.65;41.62;98845.19;5093154;28;20020;-45
2023/09/06 02:31:02;;;;;;;9.45;2.58;;;;;;;23.62;41.60;98829.66;5093013;28;20031;-45
2023/09/06 02:33:28;;;;;;;5.07;2.90;;;;;;;23.71;41.13;98841.38;5091666;28;20489;-45
2023/09/06 02:35:54;;;;;;;6.18;2.65;;;;;;;23.81;40.43;98829.78;5093154;28;20031;-45
2023/09/06 02:38:19;;;;;;;5.68;2.55;;;;;;;23.78;40.44;98834.91;5091844;28;20028;-45
2023/09/06 02:40:45;;;;;;;3.33;2.05;;;;;;;23.79;40.01;98820.44;5093149;28;20504;-45
2023/09/06 02:43:13;;;;;;;6.65;2.85;;;;;;;23.68;40.16;98835.75;5092856;28;20024;-45
2023/09/06 02:45:39;;;;;;;12.18;2.78;;;;;;;23.73;39.54;98816.97;5093027;28;20020;-45
2023/09/06 02:48:15;;;;;;;5.18;2.42;;;;;;;23.70;39.15;98823.69;5074594;28;20375;-45
2023/09/06 02:50:41;;;;;;;6.70;2.67;;;;;;;23.64;39.05;98822.16;5092750;28;20024;-45
2023/09/06 02:53:19;;;;;;;4.82;2.72;;;;;;;23.58;39.51;98830.50;5092689;28;20074;-45
2023/09/06 02:55:48;;;;;;;7.88;2.58;;;;;;;23.51;39.30;98828.16;5092613;28;20127;-45
2023/09/06 02:58:15;;;;;;;5.75;2.45;;;;;;;23.55;39.12;98831.88;5092764;28;20020;-45
2023/09/06 03:00:47;;;;;;;3.80;2.50;;;;;;;23.59;38.97;98832.13;5091287;28;20375;-45
2023/09/06 03:03:15;;;;;;;6.05;2.40;;;;;;;23.68;39.03;98833.09;5091207;28;20036;-45
2023/09/06 03:05:42;;;;;;;5.72;2.55;;;;;;;23.67;38.59;98834.97;5091292;28;20385;-45
2023/09/06 03:08:09;;;;;;;9.52;2.85;;;;;;;23.64;38.88;98834.72;5092444;28;20398;-45
2023/09/06 03:10:35;;;;;;;7.20;2.50;;;;;;;23.69;38.54;98819.41;5091118;28;20016;-45
2023/09/06 03:13:02;;;;;;;4.53;2.75;;;;;;;23.70;38.43;98833.59;5092326;28;20024;-45
2023/09/06 03:15:28;;;;;;;6.00;3.63;;;;;;;23.71;38.29;98833.31;5092049;28;20044;-45
2023/09/06 03:17:54;;;;;;;9.85;3.50;;;;;;;23.65;38.44;98831.00;5090932;28;20024;-45
2023/09/06 03:20:32;;;;;;;5.35;2.60;;;;;;;23.61;38.33;98830.75;5074074;28;20031;-45
2023/09/06 03:23:38;;;;;;;7.85;3.20;;;;;;;23.62;38.34;98832.34;5092221;28;20032;-45
2023/09/06 03:25:57;;;;;;;3.33;2.58;;;;;;;23.70;38.16;98823.69;5090665;28;20047;-45
2023/09/06 03:28:28;;;;;;;12.48;3.42;;;;;;;23.85;38.45;98824.66;5092074;28;20028;-45
2023/09/06 03:30:58;;;;;;;4.80;2.78;;;;;;;23.92;37.53;98823.25;5090927;28;20035;-45
2023/09/06 03:33:25;;;;;;;5.13;2.28;;;;;;;23.73;37.55;98825.81;5092042;28;20057;-45
2023/09/06 03:35:51;;;;;;;5.30;2.63;;;;;;;23.58;37.96;98827.81;5091900;28;20073;-45
2023/09/06 03:38:17;;;;;;;10.27;3.83;;;;;;;23.41;38.40;98822.91;5090664;28;20024;-45
2023/09/06 03:40:44;;;;;;;5.90;2.40;;;;;;;23.41;38.14;98829.06;5090588;28;20040;-45
2023/09/06 03:43:17;;;;;;;7.80;3.30;;;;;;;23.46;38.28;98830.88;5091945;28;20074;-45
2023/09/06 03:45:44;;;;;;;10.85;2.60;;;;;;;23.48;37.69;98831.38;5092059;28;20031;-45
2023/09/06 03:48:12;;;;;;;6.55;2.95;;;;;;;23.47;37.91;98835.16;5090606;28;20016;-45
2023/09/06 03:50:38;;;;;;;5.38;2.95;;;;;;;23.40;38.15;98832.81;5091825;28;20020;-45
2023/09/06 03:53:04;;;;;;;13.80;3.50;;;;;;;23.38;38.47;98843.03;5091814;28;20085;-45
2023/09/06 03:55:32;;;;;;;5.40;3.05;;;;;;;23.48;38.41;98831.38;5092078;28;20393;-45
2023/09/06 03:57:59;;;;;;;8.43;3.25;;;;;;;23.46;37.70;98826.34;5090465;28;20016;-45
2023/09/06 04:00:26;;;;;;;6.03;2.65;;;;;;;23.41;38.14;98836.28;5090405;28;20020;-45
2023/09/06 04:02:59;;;;;;;9.75;3.63;;;;;;;23.33;37.91;98835.81;5091728;28;20145;-45
2023/09/06 04:05:26;;;;;;;13.90;3.50;;;;;;;23.31;38.30;98837.97;5091681;28;20028;-45
2023/09/06 04:07:57;;;;;;;21.58;13.45;;;;;;;23.53;37.98;98842.88;5090343;28;20095;-45
2023/09/06 04:10:44;;;;;;;3.92;2.83;;;;;;;23.56;37.53;98840.69;5091653;28;20063;-45
2023/09/06 04:13:11;;;;;;;6.63;2.88;;;;;;;23.47;37.53;98848.56;5091428;28;20024;-46
2023/09/06 04:15:37;;;;;;;9.90;2.83;;;;;;;23.41;37.76;98837.09;5091594;28;20024;-45
2023/09/06 04:18:05;;;;;;;9.77;2.97;;;;;;;23.49;37.52;98846.41;5090270;28;20032;-45
2023/09/06 04:20:36;;;;;;;4.15;2.40;;;;;;;23.46;37.28;98847.78;5091614;28;20016;-45
2023/09/06 04:23:07;;;;;;;8.93;3.15;;;;;;;23.45;37.41;98848.84;5091892;28;20115;-45
2023/09/06 04:25:41;;;;;;;4.95;2.55;;;;;;;23.43;37.85;98852.88;5073624;28;20456;-45
2023/09/06 04:28:10;;;;;;;6.55;2.38;;;;;;;23.49;37.51;98854.44;5091557;28;20028;-45
2023/09/06 04:30:38;;;;;;;8.13;2.63;;;;;;;23.52;37.83;98848.50;5090170;28;20027;-45
2023/09/06 04:33:05;;;;;;;8.25;2.30;;;;;;;23.51;37.50;98852.28;5090113;28;20055;-45
2023/09/06 04:35:38;;;;;;;7.03;3.05;;;;;;;23.37;38.13;98856.69;5091444;28;20043;-45
2023/09/06 04:38:04;;;;;;;7.05;2.67;;;;;;;23.40;38.07;98851.56;5091388;28;20024;-45
2023/09/06 04:40:30;;;;;;;7.22;2.47;;;;;;;23.46;38.11;98857.66;5091371;28;20020;-45
2023/09/06 04:42:56;;;;;;;5.35;2.65;;;;;;;23.64;38.02;98851.63;5090033;28;20068;-45
2023/09/06 04:45:22;;;;;;;9.20;2.95;;;;;;;23.69;37.98;98854.25;5089929;28;20020;-45
2023/09/06 04:47:47;;;;;;;6.65;4.00;;;;;;;23.78;38.22;98861.69;5089983;28;20024;-45
2023/09/06 04:50:13;;;;;;;5.95;3.13;;;;;;;23.89;38.45;98863.22;5076816;28;20070;-45
2023/09/06 04:52:53;;;;;;;4.93;3.03;;;;;;;24.08;37.85;98856.00;5093680;28;20684;-45
2023/09/06 04:55:19;;;;;;;4.22;2.53;;;;;;;24.13;37.66;98869.38;5095000;28;20023;-45
2023/09/06 04:57:47;;;;;;;12.00;3.70;;;;;;;24.19;38.07;98862.09;5094920;28;20024;-45
2023/09/06 05:02:42;;;;;;;9.05;3.17;;;;;;;24.49;37.81;98852.88;5094837;28;20047;-45
2023/09/06 05:05:08;;;;;;;11.88;3.70;;;;;;;24.59;37.70;98851.16;5094558;28;20053;-45
2023/09/06 05:07:34;;;;;;;11.10;3.42;;;;;;;24.44;38.31;98852.91;5094681;28;20035;-45
2023/09/06 05:09:59;;;;;;;7.40;3.30;;;;;;;24.35;38.96;98859.22;5094683;28;20016;-45
2023/09/06 05:12:25;;;;;;;11.60;3.20;;;;;;;24.23;38.86;98852.38;5093315;28;20027;-45
2023/09/06 05:14:53;;;;;;;11.27;3.25;;;;;;;24.30;39.18;98857.38;5094213;28;20081;-45
2023/09/06 05:17:18;;;;;;;9.32;3.42;;;;;;;24.41;39.30;98858.06;5093191;28;20020;-45
2023/09/06 05:19:46;;;;;;;14.57;3.65;;;;;;;24.55;39.57;98859.00;5094465;28;20173;-45
2023/09/06 05:22:12;;;;;;;9.93;4.03;;;;;;;24.70;39.96;98861.47;5094442;28;20025;-45
2023/09/06 05:24:38;;;;;;;10.85;3.92;;;;;;;24.95;39.78;98862.22;5094294;28;20033;-45
2023/09/06 05:27:03;;;;;;;15.10;4.63;;;;;;;25.31;39.28;98867.88;5093008;28;20021;-45
2023/09/06 05:29:32;;;;;;;11.30;4.32;;;;;;;25.76;38.87;98859.34;5092959;28;20039;-45
2023/09/06 05:31:58;;;;;;;19.60;4.95;;;;;;;26.13;38.43;98862.97;5094451;28;20394;-45
2023/09/06 05:34:24;;;;;;;4.43;3.42;;;;;;;26.50;37.59;98864.66;5094255;28;20088;-45
2023/09/06 05:36:49;;;;;;;7.70;2.97;;;;;;;26.75;37.77;98857.16;5094170;28;20031;-45
2023/09/06 05:39:15;;;;;;;8.27;3.33;;;;;;;26.91;37.40;98865.69;5094141;28;20477;-45
2023/09/06 05:41:41;;;;;;;6.35;3.05;;;;;;;27.18;37.47;98867.50;5094328;28;20027;-45
2023/09/06 05:44:07;;;;;;;14.23;5.97;;;;;;;27.53;36.87;98859.69;5092614;28;20035;-45
2023/09/06 05:46:33;;;;;;;26.20;5.00;;;;;;;27.91;36.44;98853.88;5093934;28;20032;-45
2023/09/06 05:48:59;;;;;;;26.90;5.85;;;;;;;28.40;35.70;98853.88;5093936;28;20554;-45
2023/09/06 05:51:24;;;;;;;20.02;5.50;;;;;;;28.87;34.74;98859.50;5093864;28;20046;-45
2023/09/06 05:53:50;;;;;;;14.25;4.72;;;;;;;29.27;34.11;98862.06;5093782;28;20103;-46
2023/09/06 05:56:16;;;;;;;25.95;4.85;;;;;;;29.71;33.46;98859.28;5093767;28;20107;-46
2023/09/06 05:58:42;;;;;;;5.28;3.10;;;;;;;29.86;32.55;98870.41;5093655;28;20169;-45
2023/09/06 06:01:08;;;;;;;5.88;3.05;;;;;;;29.89;32.69;98868.16;5092490;28;20012;-46
2023/09/06 06:03:36;;;;;;;10.73;3.50;;;;;;;29.71;32.93;98864.69;5093556;28;20142;-45
2023/09/06 06:06:03;;;;;;;13.90;3.75;;;;;;;29.73;33.09;98867.91;5093508;28;20016;-46
2023/09/06 06:08:29;;;;;;;7.20;3.72;;;;;;;29.89;32.62;98866.25;5093594;28;20027;-46
2023/09/06 06:10:56;;;;;;;5.22;3.10;;;;;;;29.78;32.62;98873.13;5092126;28;20599;-45
2023/09/06 06:13:21;;;;;;;11.02;3.85;;;;;;;29.57;33.24;98868.38;5091791;28;20028;-46
2023/09/06 06:15:51;;;;;;;11.10;3.58;;;;;;;29.74;33.18;98874.88;5093358;28;20024;-46
2023/09/06 06:18:17;;;;;;;7.00;2.92;;;;;;;29.98;32.78;98871.63;5093399;28;20091;-46
2023/09/06 06:20:43;;;;;;;9.88;3.10;;;;;;;30.06;32.56;98877.00;5093255;28;20493;-46
2023/09/06 06:23:09;;;;;;;43.10;7.85;;;;;;;30.19;32.93;98864.38;5093603;28;20042;-46
2023/09/06 06:25:36;;;;;;;19.45;4.28;;;;;;;30.43;32.25;98873.84;5093158;28;20052;-46
2023/09/06 06:28:01;;;;;;;15.70;3.50;;;;;;;30.54;32.01;98880.44;5093188;28;20062;-46
2023/09/06 06:30:27;;;;;;;22.08;5.13;;;;;;;30.95;31.55;98878.09;5092121;28;20020;-46
2023/09/06 06:32:53;;;;;;;22.48;4.68;;;;;;;31.33;30.71;98879.84;5092086;28;20024;-46
2023/09/06 06:35:18;;;;;;;12.48;4.00;;;;;;;31.16;30.20;98883.53;5092964;28;20103;-46
2023/09/06 06:37:48;;;;;;;14.10;3.97;;;;;;;31.07;30.83;98870.06;5091602;28;20016;-46
2023/09/06 06:40:15;;;;;;;4.13;2.63;;;;;;;31.42;29.87;98880.56;5092928;28;20084;-46
2023/09/06 06:42:40;;;;;;;6.25;3.10;;;;;;;31.26;30.03;98881.19;5091658;28;20052;-45
2023/09/06 06:45:06;;;;;;;13.63;3.75;;;;;;;31.69;30.02;98876.47;5092895;28;20441;-46
2023/09/06 06:47:32;;;;;;;20.27;4.10;;;;;;;32.57;28.96;98876.22;5091487;28;20024;-46
2023/09/06 06:50:03;;;;;;;10.35;3.22;;;;;;;33.81;27.72;98867.25;5092779;28;20543;-46
2023/09/06 06:52:30;;;;;;;23.90;3.92;;;;;;;35.06;26.16;98871.22;5092716;28;20040;-46
2023/09/06 06:54:56;;;;;;;27.70;4.28;;;;;;;35.89;24.94;98868.06;5091445;28;20035;-46
2023/09/06 06:57:22;;;;;;;24.13;4.05;;;;;;;36.44;24.48;98867.75;5091286;28;20032;-46
2023/09/06 06:59:48;;;;;;;8.45;3.20;;;;;;;36.77;23.93;98869.00;5092475;28;20031;-46
2023/09/06 07:02:13;;;;;;;12.77;3.10;;;;;;;37.11;23.55;98869.03;5091237;28;20027;-46
2023/09/06 07:04:39;;;;;;;7.45;2.53;;;;;;;37.49;23.34;98878.03;5091082;28;20035;-46
2023/09/06 07:07:05;;;;;;;13.15;3.20;;;;;;;37.60;23.15;98881.69;5092380;28;20559;-46
2023/09/06 07:09:31;;;;;;;3.90;2.60;;;;;;;37.82;22.78;98874.44;5091139;28;20028;-46
2023/09/06 07:11:57;;;;;;;11.13;3.55;;;;;;;37.69;22.88;98878.63;5092046;28;20017;-46
2023/09/06 07:14:23;;;;;;;9.50;2.70;;;;;;;37.40;23.36;98874.81;5090756;28;20493;-46
2023/09/06 07:16:48;;;;;;;5.32;2.72;;;;;;;36.89;23.84;98882.44;5092512;28;20498;-46
2023/09/06 07:19:14;;;;;;;5.88;3.10;;;;;;;36.06;24.67;98883.19;5092289;28;20028;-46
2023/09/06 07:21:40;;;;;;;7.78;3.22;;;;;;;35.56;25.17;98891.31;5090916;28;20024;-46
2023/09/06 07:24:09;;;;;;;12.48;3.00;;;;;;;35.22;25.92;98893.00;5090797;28;20020;-46
2023/09/06 07:26:35;;;;;;;35.50;4.50;;;;;;;35.43;25.85;98889.09;5092069;28;20551;-43
2023/09/06 07:29:01;;;;;;;21.02;4.20;;;;;;;35.51;25.59;98886.13;5092118;28;20020;-44
2023/09/06 07:31:27;;;;;;;7.32;3.00;;;;;;;35.58;25.82;98889.00;5090804;28;20428;-44
2023/09/06 07:33:52;;;;;;;6.63;2.38;;;;;;;35.87;25.44;98897.69;5092079;28;20036;-44
2023/09/06 07:36:18;;;;;;;5.53;2.92;;;;;;;35.94;25.02;98888.81;5090668;28;20031;-44
2023/09/06 07:38:45;;;;;;;15.43;3.97;;;;;;;36.54;25.42;98888.19;5092239;28;20024;-44
2023/09/06 07:41:12;;;;;;;5.60;2.38;;;;;;;37.08;24.03;98889.69;5092201;28;20024;-46
2023/09/06 07:43:38;;;;;;;5.50;2.60;;;;;;;36.35;24.73;98889.91;5091871;28;20505;-46
2023/09/06 07:46:09;;;;;;;13.75;3.20;;;;;;;36.27;25.49;98890.94;5090478;28;20115;-46
2023/09/06 07:48:36;;;;;;;7.53;3.03;;;;;;;36.88;24.66;98891.03;5090698;28;20028;-46
2023/09/06 07:51:04;;;;;;;6.35;2.63;;;;;;;36.81;24.06;98891.72;5091912;28;20055;-46
2023/09/06 07:53:30;;;;;;;7.72;3.30;;;;;;;36.18;24.80;98893.94;5091900;28;20024;-46
2023/09/06 07:55:55;;;;;;;4.75;2.60;;;;;;;36.26;25.07;98889.38;5090454;28;20111;-46
2023/09/06 07:58:21;;;;;;;8.60;3.60;;;;;;;36.39;25.07;98893.47;5090469;28;20103;-46
2023/09/06 08:00:49;;;;;;;3.97;2.45;;;;;;;36.84;24.62;98906.59;5090390;28;20024;-46
2023/09/06 08:03:15;;;;;;;5.95;2.72;;;;;;;36.46;24.88;98889.25;5091818;28;20027;-46
2023/09/06 08:05:41;;;;;;;7.65;2.70;;;;;;;35.18;26.45;98908.53;5090286;28;20024;-46
2023/09/06 08:08:10;;;;;;;5.00;2.55;;;;;;;34.19;27.33;98920.34;5090414;28;20023;-46
2023/09/06 08:10:36;;;;;;;4.35;2.70;;;;;;;34.15;28.08;98921.41;5091676;28;20031;-46
2023/09/06 08:13:03;;;;;;;8.95;3.30;;;;;;;34.62;27.21;98920.53;5090355;28;20119;-46
2023/09/06 08:15:30;;;;;;;7.53;3.20;;;;;;;34.60;26.97;98914.66;5091412;28;20513;-46
2023/09/06 08:17:56;;;;;;;5.85;2.70;;;;;;;34.01;27.86;98908.19;5090571;28;20036;-46
2023/09/06 08:20:22;;;;;;;8.27;3.20;;;;;;;34.16;28.13;98922.97;5091602;28;20394;-46
2023/09/06 08:22:47;;;;;;;5.45;3.30;;;;;;;34.44;27.83;98908.44;5091568;28;20027;-46
2023/09/06 08:25:18;;;;;;;8.27;3.38;;;;;;;34.79;26.98;98916.63;5095487;28;20024;-45
2023/09/06 08:27:44;;;;;;;6.45;3.38;;;;;;;34.88;27.28;98913.72;5095455;28;20028;-46
2023/09/06 08:30:12;;;;;;;5.40;2.80;;;;;;;35.21;26.37;98913.25;5094157;28;20101;-46
2023/09/06 08:32:40;;;;;;;5.35;2.90;;;;;;;35.01;26.76;98906.97;5095485;28;20450;-45
2023/09/06 08:35:06;;;;;;;5.97;2.70;;;;;;;34.64;27.22;98912.78;5093984;28;20020;-46
2023/09/06 08:37:33;;;;;;;4.82;3.10;;;;;;;34.78;27.26;98904.94;5093974;28;20472;-46
2023/09/06 08:39:59;;;;;;;11.77;3.55;;;;;;;34.86;26.84;98905.88;5093922;28;20389;-46
2023/09/06 08:42:27;;;;;;;22.88;4.25;;;;;;;35.00;27.00;98908.91;5095211;28;20028;-46
2023/09/06 08:44:54;;;;;;;13.30;4.15;;;;;;;34.88;26.92;98906.31;5095269;28;20355;-46
2023/09/06 08:47:21;;;;;;;13.23;4.15;;;;;;;35.04;27.09;98903.53;5095103;28;20034;-46
2023/09/06 08:49:47;;;;;;;30.95;4.90;;;;;;;35.58;26.45;98899.91;5095275;28;20047;-46
2023/09/06 08:52:17;;;;;;;6.85;3.00;;;;;;;35.77;25.82;98901.81;5093692;28;20027;-46
2023/09/06 08:54:44;;;;;;;5.90;2.33;;;;;;;35.87;25.92;98905.13;5094950;28;20034;-46
2023/09/06 08:57:13;;;;;;;6.07;3.08;;;;;;;36.15;25.73;98896.63;5094923;28;20102;-46
2023/09/06 08:59:40;;;;;;;7.93;2.80;;;;;;;36.27;25.49;98903.84;5095117;28;20031;-46
2023/09/06 09:02:10;;;;;;;7.55;2.90;;;;;;;35.77;25.69;98899.09;5093475;28;20508;-46
2023/09/06 09:04:42;;;;;;;4.97;2.67;;;;;;;35.48;26.27;98900.53;5094750;28;20069;-46
2023/09/06 09:07:16;;;;;;;6.55;2.97;;;;;;;35.22;26.56;98898.47;5094726;28;20028;-46
2023/09/06 09:10:00;;;;;;;5.40;2.58;;;;;;;34.97;26.70;98895.19;5094688;28;20047;-46
2023/09/06 09:12:27;;;;;;;7.00;2.55;;;;;;;34.46;27.56;98906.16;5094951;28;20444;-46
2023/09/06 09:14:56;;;;;;;5.28;2.95;;;;;;;34.34;28.13;98902.38;5092943;28;20059;-46
2023/09/06 09:17:26;;;;;;;11.40;3.55;;;;;;;35.04;27.46;98902.75;5095081;28;20016;-46
2023/09/06 09:19:56;;;;;;;6.25;2.83;;;;;;;35.90;26.21;98899.72;5093203;28;20026;-46
2023/09/06 09:22:24;;;;;;;4.63;2.70;;;;;;;36.59;25.58;98885.16;5094446;28;20039;-46
2023/09/06 09:24:50;;;;;;;11.93;2.83;;;;;;;37.09;24.40;98887.78;5093009;28;20031;-47
2023/09/06 09:27:18;;;;;;;3.70;2.63;;;;;;;37.07;24.22;98887.34;5094393;28;20027;-46
2023/09/06 09:29:44;;;;;;;8.88;3.53;;;;;;;36.54;25.11;98904.59;5094251;28;20031;-46
2023/09/06 09:32:12;;;;;;;6.15;2.72;;;;;;;36.50;25.00;98888.16;5093130;28;20062;-46
2023/09/06 09:34:41;;;;;;;15.82;4.72;;;;;;;37.46;24.76;98882.31;5094096;28;20028;-46
2023/09/06 09:37:09;;;;;;;7.10;2.63;;;;;;;38.36;22.82;98878.38;5094129;28;20039;-46
2023/09/06 09:39:35;;;;;;;5.97;2.25;;;;;;;37.99;22.99;98883.97;5094097;28;20034;-46
2023/09/06 09:42:01;;;;;;;11.93;3.60;;;;;;;37.40;24.21;98877.56;5093030;28;20032;-46
2023/09/06 09:44:27;;;;;;;3.47;2.65;;;;;;;37.92;23.58;98876.47;5094024;28;20037;-46
2023/09/06 09:46:58;;;;;;;4.05;2.10;;;;;;;38.22;23.20;98883.78;5093954;28;20059;-47
2023/09/06 09:49:26;;;;;;;25.42;3.38;;;;;;;38.45;22.68;98871.78;5094031;28;20056;-47
2023/09/06 09:51:52;;;;;;;9.55;3.60;;;;;;;38.99;22.93;98889.31;5092578;28;20056;-47
2023/09/06 09:54:21;;;;;;;10.73;3.03;;;;;;;39.32;21.95;98870.97;5093849;28;20044;-47
2023/09/06 09:57:01;;;;;;;7.28;3.28;;;;;;;40.00;21.71;98871.06;5093663;28;20485;-46
2023/09/06 09:59:27;;;;;;;6.13;3.30;;;;;;;39.89;21.09;98870.31;5092407;28;20026;-47
2023/09/06 10:01:56;;;;;;;11.15;2.78;;;;;;;39.65;21.63;98880.88;5092671;28;20043;-47
2023/09/06 10:04:26;;;;;;;4.75;2.80;;;;;;;39.91;21.45;98867.94;5092300;28;20513;-47
2023/09/06 10:06:55;;;;;;;5.22;2.67;;;;;;;39.57;21.29;98876.53;5093611;28;20043;-47
2023/09/06 10:09:22;;;;;;;7.15;2.72;;;;;;;39.13;22.24;98872.13;5093835;28;20020;-47
2023/09/06 10:11:51;;;;;;;7.50;2.80;;;;;;;39.18;22.20;98871.75;5093748;28;20496;-47
2023/09/06 10:14:19;;;;;;;19.58;5.97;;;;;;;39.95;21.37;98865.97;5093124;28;20044;-47
2023/09/06 10:16:48;;;;;;;13.27;4.35;;;;;;;40.59;21.28;98862.34;5093608;28;20393;-47
2023/09/06 10:19:14;;;;;;;5.32;3.00;;;;;;;40.97;20.65;98864.53;5093374;28;20046;-47
2023/09/06 10:21:43;;;;;;;7.30;3.33;;;;;;;41.04;19.94;98870.78;5093194;28;20047;-46
2023/09/06 10:24:19;;;;;;;5.70;2.60;;;;;;;41.61;20.09;98864.19;5093309;28;20020;-47
2023/09/06 10:26:53;;;;;;;6.95;3.38;;;;;;;41.55;19.67;98854.75;5093205;28;20066;-47
2023/09/06 10:29:23;;;;;;;7.95;2.97;;;;;;;41.73;19.79;98851.88;5093144;28;20028;-47
2023/09/06 10:31:52;;;;;;;10.73;3.30;;;;;;;41.54;19.92;98850.44;5091774;28;20066;-47
2023/09/06 10:34:21;;;;;;;5.05;2.60;;;;;;;40.65;20.16;98852.47;5093090;28;20058;-47
2023/09/06 10:36:53;;;;;;;11.15;3.08;;;;;;;40.06;20.95;98852.97;5091673;28;20078;-47
2023/09/06 10:39:25;;;;;;;6.97;2.40;;;;;;;39.71;21.01;98848.28;5093011;28;20081;-47
2023/09/06 10:42:11;;;;;;;11.32;2.70;;;;;;;40.09;21.13;98854.19;5092928;28;20028;-46
2023/09/06 10:44:58;;;;;;;7.75;2.78;;;;;;;40.02;21.27;98843.97;5092800;28;20513;-46
2023/09/06 10:47:26;;;;;;;2.97;2.17;;;;;;;39.85;21.19;98844.75;5092161;28;20028;-47
2023/09/06 10:50:21;;;;;;;3.10;2.20;;;;;;;39.81;21.32;98839.25;5091476;28;20028;-47
2023/09/06 10:52:58;;;;;;;5.28;2.40;;;;;;;39.94;21.20;98834.16;5079412;28;20036;-46
2023/09/06 10:55:26;;;;;;;3.75;2.67;;;;;;;40.01;21.24;98833.38;5092750;28;20024;-47
2023/09/06 10:57:54;;;;;;;4.32;2.47;;;;;;;39.99;21.00;98839.28;5092561;28;20039;-47
2023/09/06 11:00:25;;;;;;;4.15;2.38;;;;;;;40.14;20.88;98829.78;5092589;28;20476;-47
2023/09/06 11:03:09;;;;;;;5.00;2.10;;;;;;;39.83;21.29;98834.16;5092582;28;20106;-47
2023/09/06 11:05:37;;;;;;;;;;;;;;;39.75;21.08;98836.13;5092777;28;20201;-47
2023/09/06 11:08:04;;;;;;;2.97;2.13;;;;;;;39.22;21.50;98833.28;5092415;28;19916;-47
2023/09/06 11:10:30;;;;;;;6.53;2.60;;;;;;;39.02;21.60;98824.63;5092470;28;20524;-47
2023/09/06 11:13:18;;;;;;;3.10;2.30;;;;;;;38.85;22.23;98837.88;5092407;28;20024;-47
2023/09/06 11:15:44;;;;;;;6.32;2.83;;;;;;;38.89;22.36;98826.94;5092128;28;20083;-46
2023/09/06 11:18:10;;;;;;;8.27;3.95;;;;;;;38.78;22.74;98823.34;5092361;28;20068;-47
2023/09/06 11:20:36;;;;;;;11.93;6.78;;;;;;;38.65;22.15;98825.66;5092316;28;20027;-47
2023/09/06 11:23:03;;;;;;;9.65;2.65;;;;;;;38.11;22.45;98817.13;5092331;28;20039;-47
2023/09/06 11:25:31;;;;;;;5.80;2.80;;;;;;;37.53;22.79;98827.63;5092172;28;20016;-47
2023/09/06 11:27:59;;;;;;;6.03;3.13;;;;;;;37.46;23.22;98819.34;5092244;28;20531;-47
2023/09/06 11:30:32;;;;;;;5.55;4.93;;;;;;;37.74;23.27;98809.81;5092443;28;20447;-47
2023/09/06 11:32:58;;;;;;;8.48;3.30;;;;;;;38.21;22.76;98813.66;5090980;28;20397;-47
2023/09/06 11:35:34;;;;;;;34.28;19.80;;;;;;;38.44;22.89;98807.13;5090659;28;20038;-46
2023/09/06 11:38:02;;;;;;;5.68;2.90;;;;;;;38.69;22.42;98799.81;5092023;28;20032;-47